Etusivu
METAR-TAF:

METAR-TAF

Lentoasemat :

Kimble County Airport

Junction, Texas, Yhdysvallat

Leveyspiiri: 30-30-39N, Pituuspiiri: 099-45-59W, korkeus merenpinnasta: 527 m

Tämänhetkinen sää

Tämä raportti tehtiin 1 tunti ja 3 minuuttia sitten, kello 01.51 UTC
tyyntä
Lämpötila 17°C
Kosteus 36%
Ilmanpaine 1008 hPa
Näkyvyys: 16.1 km
selkeää

METAR: KJCT 150151Z AUTO 00000KT 10SM CLR 17/02 A2976 RMK AO2 SLP058 T01720017

Aika: 20:54 (02:54 UTC)

Sääennuste

Tämä raportti tehtiin 3 tuntia ja 32 minuuttia sitten, kello 23.22 UTC
Ennuste voimassa 15. päivästä klo 00 UTC - 15. päivään klo 24 UTC
Tuuli 4 kn eri suunnista
Näkyvyys: 10 km
selkeää
From 15. päivästä klo 1800 UTC
Tuuli 6 kn lounaasta
Näkyvyys: 10 km
selkeää

TAF: KJCT 142322Z 1500/1524 VRB04KT P6SM SKC FM151800 23006KT P6SM SKC

Säähavainnot ja -ennusteet yli 4000 lentoasemalta (METAR- ja TAF-raportit).

Käytössä olevat sääasemat on merkitty karttaan keltaisilla ja punaisilla pisteillä.

Aseta hiiri pisteen päälle nähdäksesi sääaseman nimen.

Klikkaa sitten nähdäksesi säähavainnot ja -ennusteet.

Kartan vaihtaminen: klikkaa mustalla rastilla varustettuja vihreitä pisteitä, niin voit zoomata sisään; viivalla varustettua vihreää pistettä, niin voit zoomata ulos tai vihreitä nuolia, niin pääset viereisille kartoille.


METAR-TAF: